Time;durP1;ratioP1;P1;durP2;ratioP2;P2;SDS_P1;SDS_P2;PMS_P1;PMS_P2;Temp;Humidity;BMP_temperature;BMP_pressure;BME280_temperature;BME280_humidity;BME280_pressure;Samples;Min_cycle;Max_cycle;Signal;HPM_P1;HPM_P2
2024/03/04 00:01:30;;;;;;;23.80;21.30;;;10.20;1.00;;;;;;5099820;27;21289;-78
2024/03/04 00:03:57;;;;;;;24.53;21.93;;;10.20;1.00;;;;;;5091053;28;20608;-77
2024/03/04 00:06:26;;;;;;;25.63;22.07;;;10.10;1.00;;;;;;5087780;27;21297;-77
2024/03/04 00:08:53;;;;;;;23.53;21.00;;;10.10;1.00;;;;;;5082701;28;20525;-77
2024/03/04 00:11:22;;;;;;;27.97;22.10;;;10.10;1.00;;;;;;5086141;28;20478;-77
2024/03/04 00:13:49;;;;;;;27.27;22.20;;;10.00;1.00;;;;;;5086483;28;20512;-77
2024/03/04 00:16:16;;;;;;;27.07;23.03;;;10.10;1.00;;;;;;5094067;27;20533;-78
2024/03/04 00:18:43;;;;;;;25.90;22.40;;;10.10;1.00;;;;;;5090446;28;20478;-77
2024/03/04 00:21:10;;;;;;;25.17;21.47;;;10.00;1.00;;;;;;5088898;28;20477;-78
2024/03/04 00:23:38;;;;;;;25.90;23.30;;;10.00;1.00;;;;;;5091167;28;20569;-78
2024/03/04 00:26:09;;;;;;;25.23;22.63;;;10.00;1.00;;;;;;5094820;28;20455;-77
2024/03/04 00:28:38;;;;;;;25.30;22.60;;;10.00;1.00;;;;;;5092982;28;20474;-78
2024/03/04 00:31:08;;;;;;;25.03;22.43;;;10.00;1.00;;;;;;5091609;28;21285;-78
2024/03/04 00:33:37;;;;;;;25.37;22.77;;;9.90;1.00;;;;;;5091228;28;20465;-77
2024/03/04 00:36:10;;;;;;;28.17;25.07;;;9.90;1.00;;;;;;5091581;28;21033;-79
2024/03/04 00:38:39;;;;;;;28.80;25.27;;;9.90;1.00;;;;;;5110673;27;20454;-79
2024/03/04 00:41:07;;;;;;;30.87;26.13;;;9.90;1.00;;;;;;5111629;27;20509;-78
2024/03/04 00:43:34;;;;;;;27.87;24.90;;;9.80;1.00;;;;;;5108893;27;20449;-79
2024/03/04 00:46:02;;;;;;;31.37;25.07;;;9.80;1.00;;;;;;5105314;28;20493;-77
2024/03/04 00:48:29;;;;;;;28.63;25.53;;;9.80;1.00;;;;;;5090311;27;20451;-78
2024/03/04 00:50:57;;;;;;;31.77;26.70;;;9.80;1.00;;;;;;5089627;27;20560;-77
2024/03/04 00:53:24;;;;;;;31.27;27.03;;;9.80;1.00;;;;;;5091353;27;20520;-77
2024/03/04 00:55:53;;;;;;;30.80;26.97;;;9.80;1.00;;;;;;5100838;27;20469;-78
2024/03/04 00:58:20;;;;;;;30.20;26.17;;;9.80;1.00;;;;;;5091342;28;20523;-78
2024/03/04 01:00:49;;;;;;;32.00;28.60;;;9.70;1.00;;;;;;5090979;28;21288;-78
2024/03/04 01:03:16;;;;;;;31.57;27.27;;;9.70;1.00;;;;;;5091986;28;20449;-78
2024/03/04 01:05:43;;;;;;;31.60;28.20;;;9.70;1.00;;;;;;5093039;28;20476;-78
2024/03/04 01:08:10;;;;;;;31.20;27.93;;;9.60;1.00;;;;;;5088699;28;20454;-78
2024/03/04 01:10:38;;;;;;;32.30;28.43;;;9.60;1.00;;;;;;5087086;28;21246;-77
2024/03/04 01:13:07;;;;;;;32.63;29.10;;;9.60;1.00;;;;;;5091812;28;20540;-77
2024/03/04 01:15:37;;;;;;;32.07;28.67;;;9.60;1.00;;;;;;5088959;28;20493;-77
2024/03/04 01:18:05;;;;;;;32.83;29.33;;;9.60;1.00;;;;;;5085482;28;20443;-78
2024/03/04 01:20:33;;;;;;;32.93;29.53;;;9.60;1.00;;;;;;5088926;28;20544;-77
2024/03/04 01:23:00;;;;;;;33.00;29.63;;;9.60;1.00;;;;;;5089151;28;20553;-76
2024/03/04 01:25:27;;;;;;;33.27;29.67;;;9.60;1.00;;;;;;5091566;28;20490;-77
2024/03/04 01:27:54;;;;;;;34.50;30.40;;;9.60;1.00;;;;;;5096647;27;20535;-76
2024/03/04 01:30:24;;;;;;;33.20;29.73;;;9.50;1.00;;;;;;5097882;27;20571;-74
2024/03/04 01:32:53;;;;;;;35.67;31.77;;;9.50;1.00;;;;;;5088695;28;20521;-75
2024/03/04 01:35:20;;;;;;;34.50;30.77;;;9.40;1.00;;;;;;5106717;27;20469;-74
2024/03/04 01:37:49;;;;;;;34.67;30.30;;;9.40;1.00;;;;;;5108387;27;20477;-74
2024/03/04 01:40:17;;;;;;;36.17;31.40;;;9.40;1.00;;;;;;5106694;27;20552;-75
2024/03/04 01:42:45;;;;;;;36.63;32.80;;;9.40;1.00;;;;;;5110043;27;20574;-75
2024/03/04 01:45:19;;;;;;;40.00;34.87;;;9.30;1.00;;;;;;5105897;27;20473;-75
2024/03/04 01:47:47;;;;;;;37.17;32.17;;;9.30;1.00;;;;;;5110643;27;20984;-75
2024/03/04 01:50:14;;;;;;;36.60;32.77;;;9.20;1.00;;;;;;5096252;27;20474;-75
2024/03/04 01:52:41;;;;;;;34.67;30.57;;;9.20;1.00;;;;;;5091768;27;20458;-74
2024/03/04 01:55:09;;;;;;;39.37;35.07;;;9.20;1.00;;;;;;5086078;27;20987;-75
2024/03/04 01:57:37;;;;;;;37.27;31.50;;;9.20;1.00;;;;;;5076687;28;20525;-74
2024/03/04 02:00:11;;;;;;;37.50;33.10;;;9.20;1.00;;;;;;5084631;28;20489;-74
2024/03/04 02:02:40;;;;;;;37.20;33.20;;;9.20;1.00;;;;;;5085778;28;21003;-74
2024/03/04 02:05:09;;;;;;;38.77;34.27;;;9.20;1.00;;;;;;5085700;28;20954;-74
2024/03/04 02:07:38;;;;;;;38.30;34.17;;;9.10;1.00;;;;;;5087063;28;20593;-76
2024/03/04 02:10:07;;;;;;;43.33;34.40;;;9.10;1.00;;;;;;5086023;28;20498;-75
2024/03/04 02:12:35;;;;;;;42.37;34.83;;;9.00;1.00;;;;;;5083881;28;21199;-74
2024/03/04 02:15:03;;;;;;;38.00;33.90;;;9.00;1.00;;;;;;5084395;27;20506;-74
2024/03/04 02:17:32;;;;;;;41.63;37.17;;;9.00;1.00;;;;;;5086670;27;21143;-74
2024/03/04 02:20:03;;;;;;;38.73;34.63;;;9.00;1.00;;;;;;5086732;28;20471;-75
2024/03/04 02:22:32;;;;;;;44.20;35.47;;;9.00;1.00;;;;;;5092450;27;21213;-73
2024/03/04 02:24:59;;;;;;;42.40;37.43;;;9.00;1.00;;;;;;5094366;27;20457;-75
2024/03/04 02:27:26;;;;;;;41.20;36.43;;;9.00;1.00;;;;;;5086678;28;20460;-75
2024/03/04 02:29:54;;;;;;;40.10;35.80;;;9.00;1.00;;;;;;5083852;28;20509;-75
2024/03/04 02:32:22;;;;;;;43.43;35.10;;;8.90;1.00;;;;;;5082839;28;20579;-74
2024/03/04 02:34:49;;;;;;;45.33;38.73;;;8.90;1.00;;;;;;5086906;28;20929;-77
2024/03/04 02:37:17;;;;;;;43.00;38.40;;;8.90;1.00;;;;;;5097152;27;21314;-78
2024/03/04 02:39:46;;;;;;;42.77;38.07;;;8.80;1.00;;;;;;5098649;27;20470;-77
2024/03/04 02:42:14;;;;;;;45.40;37.67;;;8.80;1.00;;;;;;5091351;28;21374;-81
2024/03/04 02:44:41;;;;;;;42.20;37.60;;;8.80;1.00;;;;;;5091266;28;20975;-77
2024/03/04 02:47:08;;;;;;;44.30;39.63;;;8.80;1.00;;;;;;5092998;28;20668;-76
2024/03/04 02:49:35;;;;;;;42.73;36.93;;;8.70;1.00;;;;;;5114783;27;20469;-76
2024/03/04 02:52:02;;;;;;;44.13;39.37;;;8.70;1.00;;;;;;5118082;27;21009;-77
2024/03/04 02:54:30;;;;;;;44.13;38.70;;;8.70;1.00;;;;;;5119154;27;20497;-78
2024/03/04 02:56:58;;;;;;;44.10;39.27;;;8.70;1.00;;;;;;5109564;27;20520;-77
2024/03/04 02:59:25;;;;;;;45.53;40.57;;;8.70;1.00;;;;;;5091171;28;20561;-77
2024/03/04 03:01:52;;;;;;;46.10;40.87;;;8.70;1.00;;;;;;5071803;28;20478;-77
2024/03/04 03:04:20;;;;;;;44.63;40.13;;;8.70;1.00;;;;;;5089525;28;20557;-78
2024/03/04 03:06:47;;;;;;;43.23;38.63;;;8.70;1.00;;;;;;5099526;27;20496;-78
2024/03/04 03:09:14;;;;;;;45.03;40.00;;;8.70;1.00;;;;;;5097422;27;20506;-78
2024/03/04 03:11:41;;;;;;;47.13;38.53;;;8.70;1.00;;;;;;5090176;28;20967;-77
2024/03/04 03:14:09;;;;;;;51.20;41.80;;;8.70;1.00;;;;;;5088949;28;20456;-77
2024/03/04 03:16:36;;;;;;;44.17;39.10;;;8.70;1.00;;;;;;5095467;27;20461;-77
2024/03/04 03:19:03;;;;;;;45.27;40.43;;;8.70;1.00;;;;;;5100245;27;20560;-77
2024/03/04 03:21:30;;;;;;;46.57;40.00;;;8.60;1.00;;;;;;5090137;27;20447;-76
2024/03/04 03:23:58;;;;;;;48.77;42.90;;;8.60;1.00;;;;;;5104896;27;20914;-77
2024/03/04 03:26:25;;;;;;;46.47;38.67;;;8.60;1.00;;;;;;5107674;27;20458;-76
2024/03/04 03:28:53;;;;;;;45.27;38.50;;;8.60;1.00;;;;;;5093112;28;20466;-78
2024/03/04 03:31:23;;;;;;;44.10;39.37;;;8.60;1.00;;;;;;5079449;28;20537;-75
2024/03/04 03:33:50;;;;;;;48.80;41.10;;;8.60;1.00;;;;;;5109731;27;20433;-77
2024/03/04 03:36:18;;;;;;;45.53;39.00;;;8.60;1.00;;;;;;5108480;27;20966;-77
2024/03/04 03:38:46;;;;;;;47.70;39.57;;;8.60;1.00;;;;;;5098586;27;20524;-77
2024/03/04 03:41:14;;;;;;;53.27;41.10;;;8.60;1.00;;;;;;5092923;27;20490;-77
2024/03/04 03:43:41;;;;;;;44.80;39.43;;;8.70;1.00;;;;;;5098121;27;20451;-77
2024/03/04 03:46:08;;;;;;;45.47;40.50;;;8.70;1.00;;;;;;5088550;28;20454;-77
2024/03/04 03:48:38;;;;;;;48.63;41.77;;;8.70;1.00;;;;;;5089447;28;20510;-77
2024/03/04 03:51:07;;;;;;;48.30;40.80;;;8.60;1.00;;;;;;5097770;28;20542;-78
2024/03/04 03:53:34;;;;;;;47.73;41.73;;;8.60;1.00;;;;;;5091754;28;20450;-78
2024/03/04 03:56:04;;;;;;;46.53;40.00;;;8.60;1.00;;;;;;5093173;28;20451;-78
2024/03/04 03:58:31;;;;;;;45.13;40.37;;;8.60;1.00;;;;;;5096164;28;20443;-78
2024/03/04 04:00:58;;;;;;;49.03;43.63;;;8.60;1.00;;;;;;5092607;28;20478;-78
2024/03/04 04:03:25;;;;;;;49.50;42.70;;;8.50;1.00;;;;;;5100775;27;20464;-77
2024/03/04 04:05:53;;;;;;;49.00;42.00;;;8.50;1.00;;;;;;5098836;28;20566;-78
2024/03/04 04:08:21;;;;;;;45.83;41.03;;;8.50;1.00;;;;;;5094398;28;21411;-78
2024/03/04 04:10:48;;;;;;;50.00;43.97;;;8.50;1.00;;;;;;5095067;28;20477;-77
2024/03/04 04:13:15;;;;;;;52.30;43.20;;;8.40;1.00;;;;;;5094152;28;20439;-78
2024/03/04 04:15:49;;;;;;;49.97;42.37;;;8.40;1.00;;;;;;5098878;28;21219;-78
2024/03/04 04:18:19;;;;;;;48.63;43.43;;;8.30;1.00;;;;;;5115079;27;20477;-77
2024/03/04 04:20:46;;;;;;;49.33;42.97;;;8.40;1.00;;;;;;5113259;27;20458;-77
2024/03/04 04:23:14;;;;;;;49.60;42.23;;;8.40;1.00;;;;;;5087756;28;20970;-77
2024/03/04 04:25:41;;;;;;;57.07;44.73;;;8.40;1.00;;;;;;5093892;28;20438;-78
2024/03/04 04:28:09;;;;;;;53.30;44.90;;;8.40;1.00;;;;;;5103712;27;20493;-77
2024/03/04 04:30:38;;;;;;;48.40;43.20;;;8.50;1.00;;;;;;5093674;28;20415;-77
2024/03/04 04:33:07;;;;;;;49.33;43.80;;;8.50;1.00;;;;;;5114601;27;20461;-77
2024/03/04 04:35:35;;;;;;;49.43;44.03;;;8.50;1.00;;;;;;5104578;28;20543;-77
2024/03/04 04:38:02;;;;;;;50.43;44.10;;;8.50;1.00;;;;;;5097851;28;20536;-79
2024/03/04 04:40:31;;;;;;;52.13;45.23;;;8.50;1.00;;;;;;5098953;28;20427;-78
2024/03/04 04:42:59;;;;;;;55.80;47.23;;;8.50;1.00;;;;;;5092057;27;20458;-79
2024/03/04 04:45:27;;;;;;;52.90;44.10;;;8.40;1.00;;;;;;5091744;28;20534;-76
2024/03/04 04:47:54;;;;;;;49.87;44.57;;;8.40;1.00;;;;;;5092845;28;20493;-76
2024/03/04 04:50:22;;;;;;;50.13;44.50;;;8.40;1.00;;;;;;5094486;27;20457;-78
2024/03/04 04:52:48;;;;;;;54.63;45.40;;;8.30;1.00;;;;;;5093697;27;20475;-77
2024/03/04 04:55:16;;;;;;;54.07;45.20;;;8.30;1.00;;;;;;5095072;28;20484;-78
2024/03/04 04:57:44;;;;;;;58.20;45.80;;;8.30;1.00;;;;;;5089094;28;20569;-77
2024/03/04 05:00:12;;;;;;;54.30;44.73;;;8.30;1.00;;;;;;5088835;28;20516;-76
2024/03/04 05:02:41;;;;;;;51.77;44.63;;;8.30;1.00;;;;;;5088677;28;20466;-78
2024/03/04 05:05:09;;;;;;;49.83;43.17;;;8.20;1.00;;;;;;5089268;28;21195;-78
2024/03/04 05:07:38;;;;;;;52.50;44.23;;;8.20;1.00;;;;;;5091817;28;20442;-78
2024/03/04 05:10:07;;;;;;;58.23;45.50;;;8.20;1.00;;;;;;5091337;28;20575;-77
2024/03/04 05:12:35;;;;;;;52.10;46.40;;;8.20;1.00;;;;;;5101486;27;21352;-78
2024/03/04 05:15:07;;;;;;;52.07;46.27;;;8.20;1.00;;;;;;5110637;27;20454;-78
2024/03/04 05:17:34;;;;;;;54.87;48.67;;;8.10;1.00;;;;;;5105737;27;20510;-79
2024/03/04 05:20:06;;;;;;;54.30;46.73;;;8.10;1.00;;;;;;5106279;27;20426;-78
2024/03/04 05:22:33;;;;;;;56.40;47.50;;;8.10;1.00;;;;;;5115986;27;20453;-76
2024/03/04 05:25:00;;;;;;;61.40;46.60;;;8.10;1.00;;;;;;5117320;27;20461;-76
2024/03/04 05:27:28;;;;;;;57.50;47.63;;;8.10;1.00;;;;;;5117934;27;20477;-77
2024/03/04 05:29:55;;;;;;;54.60;48.37;;;8.30;1.00;;;;;;5112923;27;20452;-78
2024/03/04 05:32:24;;;;;;;52.50;46.67;;;8.30;1.00;;;;;;5118636;27;20502;-76
2024/03/04 05:34:51;;;;;;;54.67;45.97;;;8.20;1.00;;;;;;5113934;27;20460;-77
2024/03/04 05:37:19;;;;;;;56.93;46.90;;;8.20;1.00;;;;;;5094610;28;20451;-79
2024/03/04 05:39:47;;;;;;;55.57;48.03;;;8.20;1.00;;;;;;5109119;27;20536;-76
2024/03/04 05:42:15;;;;;;;53.37;47.60;;;8.10;1.00;;;;;;5099096;27;20448;-79
2024/03/04 05:44:42;;;;;;;56.50;48.40;;;8.10;1.00;;;;;;5108958;27;21206;-77
2024/03/04 05:47:12;;;;;;;58.80;47.83;;;8.10;1.00;;;;;;5110869;27;20465;-77
2024/03/04 05:49:40;;;;;;;66.40;49.70;;;8.00;1.00;;;;;;5108824;27;20453;-81
2024/03/04 05:52:07;;;;;;;56.17;47.83;;;8.10;1.00;;;;;;5113447;27;20461;-78
2024/03/04 05:54:34;;;;;;;53.87;45.30;;;8.10;1.00;;;;;;5096322;27;20442;-78
2024/03/04 05:57:01;;;;;;;57.40;47.80;;;8.10;1.00;;;;;;5107907;27;20577;-77
2024/03/04 05:59:28;;;;;;;60.63;49.90;;;8.10;1.00;;;;;;5098841;28;20454;-78
2024/03/04 06:01:55;;;;;;;59.17;47.57;;;8.00;1.00;;;;;;5102729;27;20422;-79
2024/03/04 06:04:24;;;;;;;58.27;48.80;;;8.00;1.00;;;;;;5111244;27;20460;-79
2024/03/04 06:06:52;;;;;;;55.50;47.83;;;8.00;1.00;;;;;;5109909;27;20523;-73
2024/03/04 06:09:19;;;;;;;52.30;46.53;;;8.00;1.00;;;;;;5095076;27;20468;-76
2024/03/04 06:11:47;;;;;;;58.97;46.37;;;8.10;1.00;;;;;;5084406;28;20462;-76
2024/03/04 06:14:14;;;;;;;52.37;46.67;;;8.00;1.00;;;;;;5074263;28;21677;-76
2024/03/04 06:16:41;;;;;;;60.33;49.60;;;7.90;1.00;;;;;;5083184;28;20557;-75
2024/03/04 06:19:08;;;;;;;52.77;46.53;;;7.90;1.00;;;;;;5089072;27;20462;-74
2024/03/04 06:21:36;;;;;;;61.67;49.00;;;7.90;1.00;;;;;;5089258;27;20548;-75
2024/03/04 06:24:07;;;;;;;57.30;47.27;;;7.90;1.00;;;;;;5106143;27;20545;-74
2024/03/04 06:26:33;;;;;;;58.47;46.07;;;7.90;1.00;;;;;;5107803;27;20540;-74
2024/03/04 06:29:00;;;;;;;61.47;47.60;;;7.90;1.00;;;;;;5090204;27;20462;-75
2024/03/04 06:31:32;;;;;;;63.20;49.70;;;8.00;1.00;;;;;;5101210;27;20477;-75
2024/03/04 06:33:59;;;;;;;62.70;50.27;;;8.10;1.00;;;;;;5095556;27;20855;-74
2024/03/04 06:36:26;;;;;;;54.50;44.57;;;8.30;1.00;;;;;;5104430;27;20609;-78
2024/03/04 06:38:53;;;;;;;54.10;47.83;;;8.40;1.00;;;;;;5104380;27;20549;-76
2024/03/04 06:41:21;;;;;;;53.33;44.97;;;8.40;1.00;;;;;;5070287;28;20976;-76
2024/03/04 06:43:48;;;;;;;50.87;44.40;;;8.50;1.00;;;;;;5090541;28;20486;-77
2024/03/04 06:46:15;;;;;;;59.47;48.30;;;8.50;1.00;;;;;;5091718;28;20478;-75
2024/03/04 06:48:42;;;;;;;53.23;45.70;;;8.50;1.00;;;;;;5086302;28;20471;-76
2024/03/04 06:51:11;;;;;;;53.10;46.67;;;8.50;1.00;;;;;;5088544;28;20478;-76
2024/03/04 06:53:38;;;;;;;57.13;45.77;;;8.50;1.00;;;;;;5090567;27;20494;-75
2024/03/04 06:56:09;;;;;;;55.03;44.67;;;8.50;1.00;;;;;;5088181;28;20581;-76
2024/03/04 06:58:37;;;;;;;52.40;46.67;;;8.50;1.00;;;;;;5088386;28;20455;-77
2024/03/04 07:01:05;;;;;;;51.13;45.63;;;8.50;1.00;;;;;;5088973;28;20956;-76
2024/03/04 07:03:32;;;;;;;60.97;47.70;;;8.60;1.00;;;;;;5087208;28;21155;-74
2024/03/04 07:05:59;;;;;;;58.23;45.90;;;8.60;1.00;;;;;;5085661;28;21291;-72
2024/03/04 07:08:26;;;;;;;61.83;46.03;;;8.60;1.00;;;;;;5086944;28;20644;-73
2024/03/04 07:10:53;;;;;;;53.77;44.10;;;8.70;1.00;;;;;;5090614;28;21433;-73
2024/03/04 07:13:20;;;;;;;55.67;45.73;;;8.70;1.00;;;;;;5088385;28;20490;-74
2024/03/04 07:15:48;;;;;;;55.47;44.90;;;8.80;1.00;;;;;;5090220;28;20474;-71
2024/03/04 07:18:15;;;;;;;54.93;44.17;;;8.80;1.00;;;;;;5089534;28;20526;-77
2024/03/04 07:20:42;;;;;;;55.57;45.67;;;8.90;1.00;;;;;;5089487;28;20458;-74
2024/03/04 07:23:09;;;;;;;53.33;44.50;;;9.00;1.00;;;;;;5089922;28;20832;-76
2024/03/04 07:25:37;;;;;;;52.27;42.53;;;9.00;1.00;;;;;;5088629;28;20561;-75
2024/03/04 07:28:04;;;;;;;47.17;41.87;;;9.10;1.00;;;;;;5090984;28;20454;-77
2024/03/04 07:30:31;;;;;;;53.60;45.00;;;9.30;1.00;;;;;;5093420;28;20450;-80
2024/03/04 07:32:59;;;;;;;53.27;44.83;;;9.40;1.00;;;;;;5091601;28;20881;-75
2024/03/04 07:35:26;;;;;;;56.13;45.57;;;9.50;1.00;;;;;;5093443;28;20453;-78
2024/03/04 07:37:54;;;;;;;47.87;42.83;;;9.60;1.00;;;;;;5092254;27;20508;-76
2024/03/04 07:40:22;;;;;;;46.90;41.77;;;9.70;1.00;;;;;;5093602;28;20545;-76
2024/03/04 07:42:48;;;;;;;47.03;41.60;;;9.80;1.00;;;;;;5093035;28;20447;-76
2024/03/04 07:45:16;;;;;;;46.70;41.70;;;9.80;1.00;;;;;;5092665;28;20950;-76
2024/03/04 07:47:43;;;;;;;45.70;40.87;;;10.00;1.00;;;;;;5088825;28;21249;-77
2024/03/04 07:50:11;;;;;;;52.07;41.90;;;10.00;1.00;;;;;;5090442;28;20537;-76
2024/03/04 07:52:38;;;;;;;49.57;42.43;;;10.10;1.00;;;;;;5089044;28;20436;-76
2024/03/04 07:55:09;;;;;;;49.97;41.63;;;10.20;1.00;;;;;;5094803;28;20557;-75
2024/03/04 07:57:36;;;;;;;44.83;40.13;;;10.30;1.00;;;;;;5091826;28;20447;-74
2024/03/04 08:00:04;;;;;;;46.50;41.50;;;10.40;1.00;;;;;;5100260;27;20435;-74
2024/03/04 08:02:32;;;;;;;48.27;40.07;;;10.40;1.00;;;;;;5096710;27;20457;-73
2024/03/04 08:05:00;;;;;;;47.93;40.53;;;10.40;1.00;;;;;;5105147;27;20485;-76
2024/03/04 08:07:28;;;;;;;51.47;41.63;;;10.50;1.00;;;;;;5076453;28;20934;-76
2024/03/04 08:09:55;;;;;;;47.13;40.80;;;10.60;1.00;;;;;;5091929;28;20973;-75
2024/03/04 08:12:24;;;;;;;51.42;45.75;;;10.70;1.00;;;;;;5101347;27;20472;-76
2024/03/04 08:14:51;;;;;;;47.17;41.63;;;10.90;1.00;;;;;;5091893;28;20318;-76
2024/03/04 08:17:19;;;;;;;44.00;39.30;;;11.00;1.00;;;;;;5089145;28;20490;-76
2024/03/04 08:19:46;;;;;;;44.93;40.13;;;11.10;1.00;;;;;;5081806;28;20462;-76
2024/03/04 08:22:13;;;;;;;44.93;40.33;;;11.20;1.00;;;;;;5099659;27;20463;-77
2024/03/04 08:24:43;;;;;;;49.07;39.77;;;11.20;1.00;;;;;;5096216;27;20454;-77
2024/03/04 08:27:10;;;;;;;43.87;39.10;;;11.40;1.00;;;;;;5095813;28;20491;-75
2024/03/04 08:29:37;;;;;;;46.30;40.07;;;11.50;1.00;;;;;;5063507;28;20594;-74
2024/03/04 08:32:05;;;;;;;44.63;38.90;;;11.60;1.00;;;;;;5100390;27;20463;-77
2024/03/04 08:34:32;;;;;;;49.90;41.10;;;11.70;1.00;;;;;;5102521;27;20444;-74
2024/03/04 08:37:00;;;;;;;45.87;39.80;;;11.70;1.00;;;;;;5083862;28;20466;-74
2024/03/04 08:39:27;;;;;;;48.70;42.60;;;11.90;1.00;;;;;;5099970;27;20464;-75
2024/03/04 08:41:55;;;;;;;44.13;39.60;;;11.90;1.00;;;;;;5092697;28;20354;-75
2024/03/04 08:44:22;;;;;;;47.80;41.97;;;11.90;1.00;;;;;;5092208;28;20566;-76
2024/03/04 08:46:50;;;;;;;45.33;40.40;;;12.10;1.00;;;;;;5089165;28;20508;-72
2024/03/04 08:49:17;;;;;;;46.27;40.53;;;12.20;1.00;;;;;;5089280;28;21181;-73
2024/03/04 08:51:44;;;;;;;60.47;39.53;;;12.40;1.00;;;;;;5090232;28;20469;-74
2024/03/04 08:54:11;;;;;;;43.57;38.33;;;12.50;1.00;;;;;;5097413;27;20493;-76
2024/03/04 08:56:39;;;;;;;44.30;39.13;;;12.80;1.00;;;;;;5097161;27;20976;-73
2024/03/04 08:59:10;;;;;;;42.37;37.83;;;13.10;1.00;;;;;;5088806;28;20486;-74
2024/03/04 09:01:37;;;;;;;43.93;39.03;;;13.40;1.00;;;;;;5108696;27;22029;-74
2024/03/04 09:04:04;;;;;;;46.20;41.10;;;13.40;1.00;;;;;;5109449;27;20472;-74
2024/03/04 09:06:31;;;;;;;47.27;40.77;;;13.20;1.00;;;;;;5104438;27;20468;-75
2024/03/04 09:08:58;;;;;;;46.70;40.93;;;13.10;1.00;;;;;;5100809;27;20465;-73
2024/03/04 09:11:25;;;;;;;52.83;38.90;;;13.10;1.00;;;;;;5102814;27;20960;-74
2024/03/04 09:13:55;;;;;;;46.57;39.17;;;13.10;1.00;;;;;;5115658;27;20546;-72
2024/03/04 09:16:26;;;;;;;49.47;40.37;;;12.90;1.00;;;;;;5111141;27;20444;-72
2024/03/04 09:18:53;;;;;;;44.03;39.20;;;12.70;1.00;;;;;;5113271;27;20464;-74
2024/03/04 09:21:24;;;;;;;44.57;39.87;;;12.60;1.00;;;;;;5113844;27;20629;-75
2024/03/04 09:23:54;;;;;;;47.13;39.93;;;12.70;1.00;;;;;;5120768;27;20517;-77
2024/03/04 09:26:21;;;;;;;48.37;38.60;;;12.80;1.00;;;;;;5112883;27;20474;-74
2024/03/04 09:28:50;;;;;;;47.97;40.13;;;12.80;1.00;;;;;;5114078;27;20502;-74
2024/03/04 09:31:17;;;;;;;43.70;38.77;;;12.80;1.00;;;;;;5113029;27;20458;-73
2024/03/04 09:33:46;;;;;;;44.50;39.80;;;12.90;1.00;;;;;;5111529;27;20459;-74
2024/03/04 09:36:14;;;;;;;53.77;48.17;;;12.90;1.00;;;;;;5111347;27;20569;-74
2024/03/04 09:38:43;;;;;;;46.30;41.67;;;13.00;1.00;;;;;;5117703;27;20475;-75
2024/03/04 09:41:13;;;;;;;44.40;39.80;;;13.40;1.00;;;;;;5114465;27;20456;-75
2024/03/04 09:43:40;;;;;;;42.37;38.07;;;13.60;1.00;;;;;;5112015;27;21342;-79
2024/03/04 09:46:09;;;;;;;43.43;38.83;;;13.60;1.00;;;;;;5115492;27;20902;-78
2024/03/04 09:48:38;;;;;;;45.10;39.10;;;13.70;1.00;;;;;;5090497;28;20464;-76
2024/03/04 09:51:09;;;;;;;48.73;39.43;;;13.80;1.00;;;;;;5092074;28;20450;-77
2024/03/04 09:53:37;;;;;;;54.60;43.00;;;13.80;1.00;;;;;;5110180;27;20480;-77
2024/03/04 09:56:05;;;;;;;47.53;39.27;;;13.90;1.00;;;;;;5092095;27;21204;-76
2024/03/04 09:58:35;;;;;;;43.40;38.73;;;13.90;1.00;;;;;;5089975;28;20439;-78
2024/03/04 10:01:04;;;;;;;42.20;36.97;;;14.00;1.00;;;;;;5087956;28;20478;-76
2024/03/04 10:03:32;;;;;;;44.10;39.50;;;14.00;1.00;;;;;;5088570;28;20495;-75
2024/03/04 10:05:59;;;;;;;44.43;39.20;;;14.10;1.00;;;;;;5095606;27;20556;-76
2024/03/04 10:08:28;;;;;;;42.83;38.27;;;13.80;1.00;;;;;;5088926;28;20555;-77
2024/03/04 10:10:55;;;;;;;43.10;38.53;;;13.80;1.00;;;;;;5089275;27;20453;-77
2024/03/04 10:13:22;;;;;;;42.67;38.23;;;13.60;1.00;;;;;;5078756;28;20541;-75
2024/03/04 10:15:49;;;;;;;43.50;38.30;;;13.60;1.00;;;;;;5108928;27;20448;-75
2024/03/04 10:18:17;;;;;;;42.47;38.17;;;13.50;1.00;;;;;;5113235;27;20491;-76
2024/03/04 10:20:44;;;;;;;42.37;38.00;;;13.60;1.00;;;;;;5112374;27;20453;-76
2024/03/04 10:23:13;;;;;;;44.40;39.47;;;13.70;1.00;;;;;;5112374;27;20480;-76
2024/03/04 10:25:42;;;;;;;42.67;38.07;;;13.90;1.00;;;;;;5110196;27;20549;-76
2024/03/04 10:28:10;;;;;;;42.63;38.17;;;14.00;1.00;;;;;;5110415;27;20513;-76
2024/03/04 10:30:37;;;;;;;44.00;39.77;;;14.00;1.00;;;;;;5088677;28;20498;-76
2024/03/04 10:33:08;;;;;;;47.03;42.00;;;14.20;1.00;;;;;;5087973;28;20539;-76
2024/03/04 10:35:35;;;;;;;44.57;39.87;;;14.50;1.00;;;;;;5107702;27;20454;-77
2024/03/04 10:38:03;;;;;;;45.50;40.83;;;14.80;1.00;;;;;;5110252;28;20458;-76
2024/03/04 10:40:33;;;;;;;44.87;40.47;;;14.90;1.00;;;;;;5107703;27;23162;-74
2024/03/04 10:43:03;;;;;;;53.10;42.10;;;14.80;1.00;;;;;;5108664;27;20523;-75
2024/03/04 10:45:31;;;;;;;45.70;41.10;;;14.90;1.00;;;;;;5111684;27;20979;-76
2024/03/04 10:48:01;;;;;;;43.27;38.80;;;14.90;1.00;;;;;;5094561;27;21008;-73
2024/03/04 10:50:28;;;;;;;46.17;41.30;;;15.00;1.00;;;;;;5088583;28;20460;-76
2024/03/04 10:52:55;;;;;;;48.00;42.80;;;14.70;1.00;;;;;;5089318;28;20474;-76
2024/03/04 10:55:23;;;;;;;46.70;41.87;;;14.70;1.00;;;;;;5087400;28;20464;-75
2024/03/04 10:57:57;;;;;;;46.63;41.73;;;14.30;1.00;;;;;;5088695;28;20538;-76
2024/03/04 11:00:27;;;;;;;49.57;44.30;;;14.40;1.00;;;;;;5099896;27;20874;-75
2024/03/04 11:03:12;;;;;;;47.00;42.60;;;14.20;1.00;;;;;;5094835;28;20530;-77
2024/03/04 11:05:46;;;;;;;55.93;45.50;;;14.10;1.00;;;;;;5090507;27;20471;-75
2024/03/04 11:08:20;;;;;;;50.50;43.87;;;14.20;1.00;;;;;;5100602;28;20473;-76
2024/03/04 11:10:49;;;;;;;52.00;45.27;;;14.30;1.00;;;;;;5094978;28;20457;-75
2024/03/04 11:13:24;;;;;;;45.47;40.83;;;14.20;1.00;;;;;;5098052;28;20476;-75
2024/03/04 11:15:58;;;;;;;49.50;44.20;;;14.20;1.00;;;;;;5088615;28;20418;-77
2024/03/04 11:18:38;;;;;;;47.83;42.77;;;14.20;1.00;;;;;;5100006;27;20441;-77
2024/03/04 11:21:05;;;;;;;47.20;42.10;;;14.40;1.00;;;;;;5093730;28;21176;-76
2024/03/04 11:23:34;;;;;;;50.40;44.87;;;14.70;1.00;;;;;;5093452;28;20462;-77
2024/03/04 11:26:03;;;;;;;48.63;43.60;;;14.80;1.00;;;;;;5095706;28;20516;-77
2024/03/04 11:28:31;;;;;;;48.07;42.87;;;14.90;1.00;;;;;;5095401;27;21302;-76
2024/03/04 11:31:00;;;;;;;49.07;43.87;;;14.90;1.00;;;;;;5101894;27;20454;-75
2024/03/04 11:33:37;;;;;;;47.73;42.73;;;15.00;1.00;;;;;;5093783;28;20554;-76
2024/03/04 11:36:05;;;;;;;50.47;44.60;;;15.20;1.00;;;;;;5092302;28;20537;-75
2024/03/04 11:38:41;;;;;;;51.60;46.30;;;15.40;1.00;;;;;;5092444;28;20481;-76
2024/03/04 11:41:09;;;;;;;49.67;44.43;;;15.60;1.00;;;;;;5098671;27;20472;-78
2024/03/04 11:43:46;;;;;;;49.47;44.27;;;16.00;1.00;;;;;;5093311;28;20468;-77
2024/03/04 11:46:16;;;;;;;46.77;41.90;;;16.50;1.00;;;;;;5091545;28;20849;-81
2024/03/04 11:48:46;;;;;;;48.70;43.63;;;17.40;1.00;;;;;;5088220;27;20504;-78
2024/03/04 11:51:15;;;;;;;48.60;43.63;;;17.70;1.00;;;;;;5096007;28;20500;-81
2024/03/04 11:53:44;;;;;;;46.60;41.90;;;17.70;1.00;;;;;;5095049;28;20914;-81
2024/03/04 11:56:13;;;;;;;46.87;41.97;;;18.20;1.00;;;;;;5105347;27;20480;-76
2024/03/04 11:58:40;;;;;;;52.00;42.67;;;18.60;1.00;;;;;;5066945;28;20440;-80
2024/03/04 12:01:07;;;;;;;49.67;44.60;;;18.30;1.00;;;;;;5100074;28;20434;-74
2024/03/04 12:03:36;;;;;;;50.13;44.90;;;17.70;1.00;;;;;;5091781;28;21012;-76
2024/03/04 12:06:11;;;;;;;47.80;42.50;;;17.10;1.00;;;;;;5092649;28;20482;-78
2024/03/04 12:08:40;;;;;;;46.87;41.93;;;18.30;1.00;;;;;;5109322;27;20549;-80
2024/03/04 12:11:08;;;;;;;47.00;42.30;;;20.50;1.00;;;;;;5104814;27;20838;-76
2024/03/04 12:13:35;;;;;;;45.40;40.80;;;22.50;1.00;;;;;;5097567;27;20618;-77
2024/03/04 12:16:04;;;;;;;45.63;41.03;;;24.30;1.00;;;;;;5092340;28;20494;-78
2024/03/04 12:18:33;;;;;;;47.00;42.30;;;25.50;1.00;;;;;;5097284;28;20450;-78
2024/03/04 12:21:12;;;;;;;45.70;41.60;;;26.60;1.00;;;;;;5097498;28;20457;-75
2024/03/04 12:23:39;;;;;;;45.67;41.40;;;26.80;1.00;;;;;;5093254;28;20490;-75
2024/03/04 12:26:12;;;;;;;45.43;41.33;;;26.40;1.00;;;;;;5092888;28;20504;-75
2024/03/04 12:28:39;;;;;;;45.63;41.10;;;26.40;1.00;;;;;;5091146;28;20560;-77
2024/03/04 12:31:10;;;;;;;45.70;41.20;;;26.10;1.00;;;;;;5092996;28;20532;-75
2024/03/04 12:33:38;;;;;;;46.13;41.93;;;25.20;1.00;;;;;;5099991;28;20496;-77
2024/03/04 12:36:09;;;;;;;47.17;42.27;;;24.80;1.00;;;;;;5095948;28;20456;-77
2024/03/04 12:38:36;;;;;;;45.03;40.43;;;25.20;1.00;;;;;;5089647;28;20473;-76
2024/03/04 12:41:04;;;;;;;44.23;40.07;;;26.30;1.00;;;;;;5086479;28;20999;-76
2024/03/04 12:43:31;;;;;;;43.70;39.50;;;26.90;1.00;;;;;;5092106;28;20467;-76
2024/03/04 12:46:01;;;;;;;41.70;37.50;;;26.50;1.00;;;;;;5099661;27;20491;-76
2024/03/04 12:48:29;;;;;;;44.50;40.30;;;26.00;1.00;;;;;;5091687;28;20547;-76